Time;durP1;ratioP1;P1;durP2;ratioP2;P2;SDS_P1;SDS_P2;PMS_P1;PMS_P2;Temp;Humidity;BMP_temperature;BMP_pressure;BME280_temperature;BME280_humidity;BME280_pressure;Samples;Min_cycle;Max_cycle;Signal;HPM_P1;HPM_P2
2023/01/23 00:01:12;;;;;;;0.50;0.40;;;2.30;99.90;;;;;;5055928;28;20285;-82
2023/01/23 00:03:38;;;;;;;0.50;0.40;;;2.30;99.90;;;;;;5056128;28;20559;-81
2023/01/23 00:06:08;;;;;;;0.50;0.40;;;2.30;99.90;;;;;;5055335;28;20195;-79
2023/01/23 00:08:36;;;;;;;0.63;0.63;;;2.30;99.90;;;;;;5055887;28;20199;-81
2023/01/23 00:11:07;;;;;;;0.50;0.40;;;2.30;99.90;;;;;;5055661;28;20191;-83
2023/01/23 00:13:34;;;;;;;1.20;1.20;;;2.30;99.90;;;;;;5056016;28;20214;-82
2023/01/23 00:16:04;;;;;;;2.15;1.67;;;2.40;99.90;;;;;;5055360;28;20218;-82
2023/01/23 00:18:31;;;;;;;2.40;2.20;;;2.30;99.90;;;;;;5055258;28;20226;-82
2023/01/23 00:20:58;;;;;;;0.50;0.40;;;2.30;99.90;;;;;;5055743;28;20201;-82
2023/01/23 00:23:25;;;;;;;0.50;0.40;;;2.30;99.90;;;;;;5056049;28;20219;-82
2023/01/23 00:25:51;;;;;;;0.80;0.80;;;2.30;99.90;;;;;;5055659;28;20190;-82
2023/01/23 00:28:20;;;;;;;0.50;0.40;;;2.20;99.90;;;;;;5055683;28;20293;-81
2023/01/23 00:30:46;;;;;;;2.67;2.58;;;2.20;99.90;;;;;;5055438;28;20590;-81
2023/01/23 00:33:13;;;;;;;0.77;0.77;;;2.20;99.90;;;;;;5055726;28;20210;-82
2023/01/23 00:35:40;;;;;;;0.50;0.40;;;2.20;99.90;;;;;;5055259;28;20236;-82
2023/01/23 00:38:07;;;;;;;0.50;0.40;;;2.20;99.90;;;;;;5055262;28;20234;-82
2023/01/23 00:40:34;;;;;;;0.90;0.82;;;2.20;99.90;;;;;;5055731;28;20266;-81
2023/01/23 00:43:01;;;;;;;1.33;1.33;;;2.20;99.90;;;;;;5054949;28;20314;-80
2023/01/23 00:45:29;;;;;;;0.50;0.40;;;2.30;99.90;;;;;;5055698;28;20637;-83
2023/01/23 00:47:56;;;;;;;2.05;1.17;;;2.30;99.90;;;;;;5055837;28;20199;-82
2023/01/23 00:50:22;;;;;;;0.60;0.60;;;2.20;99.90;;;;;;5055438;28;20263;-82
2023/01/23 00:52:49;;;;;;;0.50;0.40;;;2.30;99.90;;;;;;5055294;28;20297;-82
2023/01/23 00:55:16;;;;;;;0.50;0.40;;;2.20;99.90;;;;;;5058561;28;20783;-82
2023/01/23 00:57:43;;;;;;;0.47;0.40;;;2.30;99.90;;;;;;5058572;28;20199;-82
2023/01/23 01:00:11;;;;;;;0.50;0.40;;;2.30;99.90;;;;;;5059373;28;20290;-82
2023/01/23 01:02:39;;;;;;;1.88;1.80;;;2.30;99.90;;;;;;5059395;28;20242;-82
2023/01/23 01:05:06;;;;;;;0.50;0.40;;;2.30;99.90;;;;;;5058381;28;20187;-82
2023/01/23 01:07:33;;;;;;;0.50;0.50;;;2.40;99.90;;;;;;5059008;28;20194;-82
2023/01/23 01:10:00;;;;;;;0.50;0.40;;;2.30;99.90;;;;;;5058806;28;20286;-83
2023/01/23 01:12:27;;;;;;;0.85;0.85;;;2.40;99.90;;;;;;5058632;28;20306;-82
2023/01/23 01:14:54;;;;;;;0.50;0.40;;;2.40;99.90;;;;;;5058530;28;20215;-84
2023/01/23 01:17:21;;;;;;;0.50;0.45;;;2.40;99.90;;;;;;5058944;28;20221;-82
2023/01/23 01:19:49;;;;;;;0.50;0.40;;;2.40;99.90;;;;;;5059049;28;20194;-82
2023/01/23 01:22:16;;;;;;;1.45;1.45;;;2.40;99.90;;;;;;5058209;28;20258;-82
2023/01/23 01:24:43;;;;;;;0.50;0.40;;;2.50;99.90;;;;;;5058641;28;20286;-82
2023/01/23 01:27:09;;;;;;;0.50;0.50;;;2.50;99.90;;;;;;5057292;28;20287;-82
2023/01/23 01:29:36;;;;;;;0.50;0.45;;;2.40;99.90;;;;;;5058964;28;20234;-82
2023/01/23 01:32:03;;;;;;;0.50;0.40;;;2.40;99.90;;;;;;5058658;28;20281;-82
2023/01/23 01:34:30;;;;;;;1.02;1.02;;;2.40;99.90;;;;;;5057723;28;20195;-82
2023/01/23 01:36:59;;;;;;;0.50;0.50;;;2.40;99.90;;;;;;5057737;28;20722;-80
2023/01/23 01:39:25;;;;;;;1.15;1.05;;;2.30;99.90;;;;;;5059110;28;20222;-82
2023/01/23 01:41:52;;;;;;;1.77;1.67;;;2.30;99.90;;;;;;5058571;28;20194;-82
2023/01/23 01:44:22;;;;;;;0.80;0.80;;;2.30;99.90;;;;;;5057319;28;20260;-82
2023/01/23 01:46:50;;;;;;;0.50;0.40;;;2.30;99.90;;;;;;5058474;28;20175;-82
2023/01/23 01:49:21;;;;;;;2.75;1.60;;;2.20;99.90;;;;;;5057933;28;20281;-82
2023/01/23 01:51:54;;;;;;;0.50;0.40;;;2.20;99.90;;;;;;5058044;28;20207;-83
2023/01/23 01:54:27;;;;;;;16.30;15.60;;;2.20;99.90;;;;;;5058042;28;20261;-80
2023/01/23 01:56:58;;;;;;;1.30;1.30;;;2.30;99.90;;;;;;5058029;28;20301;-82
2023/01/23 01:59:27;;;;;;;0.50;0.50;;;2.30;99.90;;;;;;5058019;28;20183;-81
2023/01/23 02:02:03;;;;;;;0.50;0.40;;;2.20;99.90;;;;;;5058164;28;20620;-82
2023/01/23 02:04:31;;;;;;;0.50;0.40;;;2.20;99.90;;;;;;5056864;28;20582;-82
2023/01/23 02:07:00;;;;;;;0.50;0.40;;;2.20;99.90;;;;;;5057204;28;20197;-81
2023/01/23 02:09:32;;;;;;;2.58;2.05;;;2.20;99.90;;;;;;5057433;28;20199;-82
2023/01/23 02:11:59;;;;;;;3.33;2.60;;;2.30;99.90;;;;;;5058042;28;20247;-81
2023/01/23 02:14:26;;;;;;;0.50;0.40;;;2.30;99.90;;;;;;5057231;28;20195;-81
2023/01/23 02:16:58;;;;;;;0.50;0.40;;;2.30;99.90;;;;;;5057782;28;20218;-82
2023/01/23 02:19:40;;;;;;;0.50;0.50;;;2.30;99.90;;;;;;5057727;28;20182;-82
2023/01/23 02:22:16;;;;;;;0.50;0.40;;;2.30;99.90;;;;;;5057107;28;20233;-81
2023/01/23 02:24:53;;;;;;;0.50;0.40;;;2.20;99.90;;;;;;5057135;28;20189;-81
2023/01/23 02:27:22;;;;;;;0.50;0.40;;;2.20;99.90;;;;;;5057099;28;20204;-82
2023/01/23 02:29:50;;;;;;;0.50;0.40;;;2.30;99.90;;;;;;5058151;28;20258;-81
2023/01/23 02:32:18;;;;;;;0.80;0.80;;;2.30;99.90;;;;;;5058029;28;20237;-81
2023/01/23 02:34:45;;;;;;;3.75;0.93;;;2.30;99.90;;;;;;5057645;28;20198;-82
2023/01/23 02:37:13;;;;;;;2.83;2.63;;;2.30;99.90;;;;;;5057564;28;20273;-81
2023/01/23 02:39:40;;;;;;;3.08;1.98;;;2.30;99.90;;;;;;5057478;28;20202;-82
2023/01/23 02:42:07;;;;;;;0.60;0.60;;;2.40;99.90;;;;;;5057186;28;20234;-81
2023/01/23 02:44:35;;;;;;;2.45;2.25;;;2.40;99.90;;;;;;5057379;28;20287;-81
2023/01/23 02:47:06;;;;;;;0.50;0.40;;;2.40;99.90;;;;;;5057202;28;20258;-82
2023/01/23 02:49:33;;;;;;;0.50;0.40;;;2.30;99.90;;;;;;5057283;28;20240;-82
2023/01/23 02:52:00;;;;;;;1.45;1.45;;;2.40;99.90;;;;;;5057387;28;20196;-82
2023/01/23 02:54:27;;;;;;;0.50;0.40;;;2.40;99.90;;;;;;5057049;28;20198;-81
2023/01/23 02:56:56;;;;;;;1.63;1.52;;;2.30;99.90;;;;;;5069859;28;20221;-79
2023/01/23 03:02:08;;;;;;;1.55;1.42;;;2.10;99.90;;;;;;5072475;28;20300;-80
2023/01/23 03:04:35;;;;;;;0.60;0.60;;;2.10;99.90;;;;;;5072215;28;20285;-79
2023/01/23 03:07:02;;;;;;;2.45;2.35;;;2.10;99.90;;;;;;5073215;28;20197;-80
2023/01/23 03:09:29;;;;;;;0.50;0.40;;;2.00;99.90;;;;;;5072544;28;20258;-80
2023/01/23 03:11:56;;;;;;;0.50;0.40;;;2.00;99.90;;;;;;5072495;28;20270;-79
2023/01/23 03:14:23;;;;;;;0.50;0.40;;;1.90;99.90;;;;;;5071585;28;20265;-79
2023/01/23 03:16:52;;;;;;;3.05;2.80;;;1.90;99.90;;;;;;5071088;28;20242;-80
2023/01/23 03:19:23;;;;;;;0.50;0.50;;;2.00;99.90;;;;;;5060525;28;20564;-82
2023/01/23 03:21:50;;;;;;;2.05;0.75;;;2.00;99.90;;;;;;5057826;28;20186;-82
2023/01/23 03:24:17;;;;;;;4.47;1.42;;;2.10;99.90;;;;;;5056780;28;20356;-82
2023/01/23 03:26:46;;;;;;;1.50;1.40;;;2.10;99.90;;;;;;5056966;28;20222;-81
2023/01/23 03:32:00;;;;;;;0.50;0.40;;;2.20;99.90;;;;;;5056279;28;20261;-81
2023/01/23 03:34:28;;;;;;;0.50;0.40;;;2.20;99.90;;;;;;5056654;28;20205;-80
2023/01/23 03:36:55;;;;;;;0.63;0.63;;;2.20;99.90;;;;;;5056195;28;20293;-82
2023/01/23 03:42:06;;;;;;;1.48;1.10;;;2.20;99.90;;;;;;5055926;28;20232;-81
2023/01/23 03:44:33;;;;;;;0.55;0.55;;;2.30;99.90;;;;;;5055813;28;20266;-82
2023/01/23 03:47:00;;;;;;;0.50;0.40;;;2.30;99.90;;;;;;5056456;28;20282;-81
2023/01/23 03:49:28;;;;;;;0.50;0.40;;;2.30;99.90;;;;;;5073219;22;20201;-77
2023/01/23 03:51:55;;;;;;;0.50;0.40;;;2.30;99.90;;;;;;5041573;28;20301;-77
2023/01/23 03:54:22;;;;;;;1.92;1.77;;;2.30;99.90;;;;;;5045561;28;20195;-77
2023/01/23 03:56:49;;;;;;;0.63;0.63;;;2.40;99.90;;;;;;5054765;28;20225;-77
2023/01/23 03:59:16;;;;;;;0.60;0.60;;;2.40;99.90;;;;;;5045688;28;20478;-77
2023/01/23 04:01:43;;;;;;;3.53;3.33;;;2.40;99.90;;;;;;5035399;28;20277;-77
2023/01/23 04:04:10;;;;;;;4.13;3.90;;;2.30;99.90;;;;;;5034640;28;20195;-78
2023/01/23 04:06:38;;;;;;;3.10;2.78;;;2.30;99.90;;;;;;5035117;28;20188;-77
2023/01/23 04:09:05;;;;;;;0.50;0.40;;;2.30;99.90;;;;;;5035121;28;20290;-78
2023/01/23 04:11:32;;;;;;;0.50;0.40;;;2.40;99.90;;;;;;5034298;28;20211;-78
2023/01/23 04:13:59;;;;;;;0.63;0.63;;;2.40;99.90;;;;;;5033217;28;20192;-77
2023/01/23 04:16:27;;;;;;;2.17;2.08;;;2.40;99.90;;;;;;5031898;28;20214;-77
2023/01/23 04:18:54;;;;;;;0.50;0.40;;;2.40;99.90;;;;;;5033000;28;20202;-77
2023/01/23 04:21:21;;;;;;;0.50;0.40;;;2.50;99.90;;;;;;5032984;28;20254;-77
2023/01/23 04:23:50;;;;;;;0.77;0.77;;;2.50;99.90;;;;;;5033350;28;20195;-77
2023/01/23 04:26:16;;;;;;;0.60;0.60;;;2.50;99.90;;;;;;5032984;28;20274;-78
2023/01/23 04:28:43;;;;;;;1.30;1.20;;;2.50;99.90;;;;;;5034998;28;20286;-77
2023/01/23 04:31:10;;;;;;;0.60;0.60;;;2.50;99.90;;;;;;5037022;28;20246;-77
2023/01/23 04:33:37;;;;;;;0.50;0.40;;;2.50;99.90;;;;;;5036493;28;20226;-77
2023/01/23 04:36:06;;;;;;;0.80;0.80;;;2.40;99.90;;;;;;5036179;28;20302;-78
2023/01/23 04:38:34;;;;;;;1.90;0.70;;;2.50;99.90;;;;;;5036766;28;20199;-77
2023/01/23 04:41:02;;;;;;;0.50;0.40;;;2.50;99.90;;;;;;5036566;28;20215;-77
2023/01/23 04:43:30;;;;;;;1.95;1.35;;;2.50;99.90;;;;;;5036429;28;20199;-77
2023/01/23 04:45:57;;;;;;;0.50;0.50;;;2.50;99.90;;;;;;5036764;28;20196;-77
2023/01/23 04:48:24;;;;;;;0.50;0.40;;;2.50;99.90;;;;;;5037422;28;20569;-77
2023/01/23 04:50:51;;;;;;;0.50;0.40;;;2.50;99.90;;;;;;5036740;28;20227;-77
2023/01/23 04:53:19;;;;;;;1.00;0.98;;;2.50;99.90;;;;;;5036557;28;20290;-77
2023/01/23 04:55:48;;;;;;;0.50;0.50;;;2.50;99.90;;;;;;5036497;28;20207;-77
2023/01/23 04:58:18;;;;;;;0.60;0.60;;;2.60;99.90;;;;;;5035913;28;20199;-77
2023/01/23 05:00:45;;;;;;;1.00;1.00;;;2.60;99.90;;;;;;5035495;28;20226;-77
2023/01/23 05:03:12;;;;;;;1.95;0.82;;;2.60;99.90;;;;;;5034843;28;20575;-77
2023/01/23 05:05:39;;;;;;;0.50;0.40;;;2.60;99.90;;;;;;5034614;28;20194;-77
2023/01/23 05:08:06;;;;;;;1.02;1.02;;;2.50;99.90;;;;;;5034813;28;20197;-77
2023/01/23 05:10:33;;;;;;;0.98;0.63;;;2.50;99.90;;;;;;5034881;28;20219;-77
2023/01/23 05:13:00;;;;;;;1.50;1.40;;;2.50;99.90;;;;;;5035064;28;20735;-77
2023/01/23 05:15:28;;;;;;;31.85;7.55;;;2.50;99.90;;;;;;5034821;28;20199;-77
2023/01/23 05:17:55;;;;;;;1.25;1.25;;;2.50;99.90;;;;;;5035241;28;20314;-77
2023/01/23 05:20:23;;;;;;;2.05;1.95;;;2.50;99.90;;;;;;5034644;28;20223;-76
2023/01/23 05:22:53;;;;;;;13.60;6.88;;;2.50;99.90;;;;;;5034490;28;20679;-77
2023/01/23 05:25:21;;;;;;;0.50;0.40;;;2.50;99.90;;;;;;5034100;28;20205;-76
2023/01/23 05:27:48;;;;;;;0.60;0.60;;;2.40;99.90;;;;;;5034499;28;20195;-77
2023/01/23 05:30:16;;;;;;;0.70;0.70;;;2.50;99.90;;;;;;5034282;28;20223;-76
2023/01/23 05:32:44;;;;;;;0.55;0.55;;;2.40;99.90;;;;;;5034716;28;20191;-77
2023/01/23 05:35:11;;;;;;;0.70;0.70;;;2.40;99.90;;;;;;5034501;28;20206;-77
2023/01/23 05:37:38;;;;;;;1.50;1.50;;;2.50;99.90;;;;;;5036222;28;20243;-77
2023/01/23 05:40:07;;;;;;;0.50;0.47;;;2.60;99.90;;;;;;5035030;28;20739;-77
2023/01/23 05:42:34;;;;;;;3.45;0.70;;;2.50;99.90;;;;;;5034464;28;20244;-77
2023/01/23 05:45:01;;;;;;;0.50;0.40;;;2.50;99.90;;;;;;5035449;28;20200;-77
2023/01/23 05:47:27;;;;;;;0.50;0.40;;;2.40;99.90;;;;;;5035277;28;20191;-78
2023/01/23 05:49:56;;;;;;;0.50;0.40;;;2.50;99.90;;;;;;5040088;28;20318;-77
2023/01/23 05:52:23;;;;;;;0.50;0.40;;;2.50;99.90;;;;;;5049044;28;20631;-77
2023/01/23 05:54:50;;;;;;;2.72;2.50;;;2.50;99.90;;;;;;5054473;28;20190;-77
2023/01/23 05:57:17;;;;;;;0.50;0.40;;;2.50;99.90;;;;;;5054749;28;20614;-77
2023/01/23 05:59:44;;;;;;;3.90;3.60;;;2.50;99.90;;;;;;5054860;28;20291;-77
2023/01/23 06:02:11;;;;;;;0.50;0.40;;;2.60;99.90;;;;;;5055506;28;20202;-78
2023/01/23 06:04:38;;;;;;;0.50;0.40;;;2.60;99.90;;;;;;5054602;28;20660;-77
2023/01/23 06:07:07;;;;;;;1.15;0.77;;;2.60;99.90;;;;;;5055550;28;20197;-77
2023/01/23 06:09:34;;;;;;;0.50;0.40;;;2.60;99.90;;;;;;5055803;28;20210;-78
2023/01/23 06:12:01;;;;;;;0.50;0.40;;;2.50;99.90;;;;;;5054678;28;20285;-78
2023/01/23 06:14:28;;;;;;;1.05;1.05;;;2.60;99.90;;;;;;5054124;28;20197;-77
2023/01/23 06:16:55;;;;;;;0.50;0.40;;;2.60;99.90;;;;;;5054417;28;20786;-77
2023/01/23 06:19:21;;;;;;;0.63;0.63;;;2.50;99.90;;;;;;5054337;28;20281;-78
2023/01/23 06:21:48;;;;;;;0.50;0.40;;;2.50;99.90;;;;;;5053740;28;20652;-77
2023/01/23 06:24:16;;;;;;;0.68;0.68;;;2.50;99.90;;;;;;5053575;28;20282;-77
2023/01/23 06:26:43;;;;;;;0.60;0.60;;;2.50;99.90;;;;;;5053219;28;20273;-77
2023/01/23 06:29:10;;;;;;;1.08;1.08;;;2.50;99.90;;;;;;5054135;28;20195;-77
2023/01/23 06:31:37;;;;;;;0.50;0.40;;;2.50;99.90;;;;;;5053415;28;20219;-77
2023/01/23 06:34:04;;;;;;;1.83;1.73;;;2.50;99.90;;;;;;5053114;28;20298;-77
2023/01/23 06:36:31;;;;;;;2.35;1.58;;;2.40;99.90;;;;;;5052824;28;20213;-77
2023/01/23 06:38:58;;;;;;;0.50;0.40;;;2.40;99.90;;;;;;5043042;28;20286;-76
2023/01/23 06:41:27;;;;;;;1.45;1.40;;;2.40;99.90;;;;;;5053441;28;20573;-77
2023/01/23 06:43:54;;;;;;;1.00;1.00;;;2.40;99.90;;;;;;5052418;28;20200;-77
2023/01/23 06:46:21;;;;;;;1.30;1.20;;;2.40;99.90;;;;;;5052025;28;20195;-76
2023/01/23 06:48:48;;;;;;;0.50;0.50;;;2.40;99.90;;;;;;5052395;28;20195;-77
2023/01/23 06:51:15;;;;;;;1.50;1.25;;;2.40;99.90;;;;;;5052039;28;20581;-77
2023/01/23 06:53:42;;;;;;;2.95;1.33;;;2.40;99.90;;;;;;5052193;28;20220;-77
2023/01/23 06:56:08;;;;;;;0.65;0.65;;;2.40;99.90;;;;;;5051149;28;20262;-77
2023/01/23 06:58:38;;;;;;;0.50;0.40;;;2.40;99.90;;;;;;5052577;28;20563;-77
2023/01/23 07:01:09;;;;;;;0.50;0.40;;;2.40;99.90;;;;;;5052705;28;20211;-77
2023/01/23 07:03:36;;;;;;;1.30;1.30;;;2.40;99.90;;;;;;5052425;28;20195;-77
2023/01/23 07:06:05;;;;;;;0.50;0.43;;;2.40;99.90;;;;;;5052489;28;20201;-77
2023/01/23 07:08:33;;;;;;;3.45;3.25;;;2.40;99.90;;;;;;5052818;28;20256;-77
2023/01/23 07:11:00;;;;;;;0.50;0.40;;;2.50;99.90;;;;;;5053195;28;20221;-77
2023/01/23 07:13:27;;;;;;;0.50;0.50;;;2.60;99.90;;;;;;5053570;28;20205;-77
2023/01/23 07:15:55;;;;;;;0.82;0.82;;;2.60;99.90;;;;;;5057113;28;20204;-78
2023/01/23 07:18:23;;;;;;;0.50;0.40;;;2.60;99.90;;;;;;5058132;28;20227;-78
2023/01/23 07:20:51;;;;;;;1.15;0.82;;;2.60;99.90;;;;;;5058677;28;20338;-78
2023/01/23 07:23:17;;;;;;;25.90;7.82;;;2.60;99.90;;;;;;5054618;28;20539;-78
2023/01/23 07:25:44;;;;;;;0.50;0.40;;;2.60;99.90;;;;;;5060206;28;20218;-78
2023/01/23 07:28:11;;;;;;;3.08;2.97;;;2.70;99.90;;;;;;5056046;28;20293;-77
2023/01/23 07:30:38;;;;;;;0.70;0.70;;;2.70;99.90;;;;;;5059668;28;20278;-78
2023/01/23 07:33:07;;;;;;;2.40;2.30;;;2.70;99.90;;;;;;5060393;28;20195;-78
2023/01/23 07:35:33;;;;;;;0.50;0.40;;;2.60;99.90;;;;;;5062051;28;20627;-78
2023/01/23 07:38:00;;;;;;;2.25;2.05;;;2.60;99.90;;;;;;5061444;28;20223;-78
2023/01/23 07:40:28;;;;;;;0.50;0.40;;;2.70;99.90;;;;;;5062174;28;20341;-77
2023/01/23 07:42:56;;;;;;;0.50;0.40;;;2.70;99.90;;;;;;5055337;28;20201;-77
2023/01/23 07:45:23;;;;;;;1.13;1.08;;;2.70;99.90;;;;;;5054143;28;20575;-77
2023/01/23 07:47:50;;;;;;;0.50;0.40;;;2.60;99.90;;;;;;5060080;28;20254;-78
2023/01/23 07:50:18;;;;;;;0.50;0.40;;;2.60;99.90;;;;;;5063984;28;20290;-78
2023/01/23 07:52:45;;;;;;;0.73;0.73;;;2.60;99.90;;;;;;5061374;28;20268;-78
2023/01/23 07:55:12;;;;;;;0.50;0.50;;;2.60;99.90;;;;;;5057018;28;20257;-79
2023/01/23 07:57:39;;;;;;;0.50;0.40;;;2.60;99.90;;;;;;5059965;28;20224;-78
2023/01/23 08:00:07;;;;;;;6.25;2.60;;;2.60;99.90;;;;;;5059665;28;20250;-78
2023/01/23 08:02:34;;;;;;;2.08;1.67;;;2.60;99.90;;;;;;5058032;28;20217;-77
2023/01/23 08:05:01;;;;;;;0.50;0.40;;;2.60;99.90;;;;;;5055232;28;20205;-78
2023/01/23 08:07:29;;;;;;;2.55;2.35;;;2.60;99.90;;;;;;5056050;28;20218;-78
2023/01/23 08:09:56;;;;;;;0.50;0.40;;;2.70;99.90;;;;;;5059585;28;20282;-78
2023/01/23 08:12:22;;;;;;;0.50;0.40;;;2.80;99.90;;;;;;5059780;28;20214;-78
2023/01/23 08:14:49;;;;;;;1.88;0.90;;;2.80;99.90;;;;;;5056839;28;20294;-77
2023/01/23 08:17:16;;;;;;;0.50;0.50;;;2.90;99.90;;;;;;5054028;28;20225;-77
2023/01/23 08:19:43;;;;;;;0.50;0.50;;;2.90;99.90;;;;;;5054010;28;20218;-77
2023/01/23 08:22:10;;;;;;;0.60;0.60;;;2.90;99.90;;;;;;5053952;28;20222;-77
2023/01/23 08:24:38;;;;;;;3.70;3.45;;;2.90;99.90;;;;;;5055568;28;20230;-77
2023/01/23 08:27:05;;;;;;;3.40;1.75;;;3.00;99.90;;;;;;5055015;28;20579;-77
2023/01/23 08:29:32;;;;;;;7.82;3.13;;;2.90;99.90;;;;;;5054737;28;20205;-77
2023/01/23 08:31:59;;;;;;;0.50;0.50;;;3.00;99.90;;;;;;5058286;28;20747;-78
2023/01/23 08:34:26;;;;;;;1.15;0.68;;;2.90;99.90;;;;;;5057596;28;20294;-77
2023/01/23 08:36:53;;;;;;;3.72;3.42;;;3.00;99.90;;;;;;5051646;28;20195;-76
2023/01/23 08:39:20;;;;;;;2.38;2.28;;;2.90;99.90;;;;;;5052339;28;20230;-77
2023/01/23 08:41:48;;;;;;;0.75;0.75;;;2.90;99.90;;;;;;5054839;28;20199;-77
2023/01/23 08:44:15;;;;;;;2.15;2.05;;;3.00;99.90;;;;;;5054933;28;20218;-77
2023/01/23 08:46:43;;;;;;;5.25;3.40;;;3.00;99.90;;;;;;5059267;28;20278;-78
2023/01/23 08:49:10;;;;;;;1.75;1.48;;;3.00;99.90;;;;;;5058204;28;20555;-76
2023/01/23 08:51:37;;;;;;;4.43;4.00;;;3.00;99.90;;;;;;5051079;28;20234;-77
2023/01/23 08:54:04;;;;;;;4.13;1.92;;;3.00;99.90;;;;;;5051945;28;20219;-77
2023/01/23 08:56:31;;;;;;;0.60;0.60;;;3.00;99.90;;;;;;5057924;28;20199;-79
2023/01/23 08:59:02;;;;;;;6.38;1.08;;;3.00;99.90;;;;;;5056027;28;20218;-77
2023/01/23 09:01:29;;;;;;;0.50;0.40;;;3.00;99.90;;;;;;5056014;28;20260;-77
2023/01/23 09:03:57;;;;;;;1.10;1.10;;;3.00;99.90;;;;;;5058103;28;20380;-78
2023/01/23 09:06:24;;;;;;;0.50;0.40;;;3.10;99.90;;;;;;5057159;28;20309;-78
2023/01/23 09:08:51;;;;;;;2.78;2.55;;;3.20;99.90;;;;;;5059076;28;20259;-78
2023/01/23 09:11:18;;;;;;;3.35;2.67;;;3.30;99.90;;;;;;5059176;28;20215;-78
2023/01/23 09:13:46;;;;;;;0.80;0.80;;;3.20;99.90;;;;;;5060770;28;20199;-78
2023/01/23 09:16:14;;;;;;;0.50;0.50;;;3.30;99.90;;;;;;5061251;28;20680;-78
2023/01/23 09:18:41;;;;;;;2.30;2.15;;;3.30;99.90;;;;;;5059801;28;20206;-77
2023/01/23 09:21:10;;;;;;;0.60;0.60;;;3.30;99.90;;;;;;5054757;28;20306;-77
2023/01/23 09:23:37;;;;;;;3.05;2.95;;;3.30;99.90;;;;;;5054226;28;20285;-77
2023/01/23 09:26:05;;;;;;;0.80;0.80;;;3.30;99.90;;;;;;5060297;28;20597;-78
2023/01/23 09:28:32;;;;;;;2.90;2.78;;;3.30;99.90;;;;;;5064550;28;20229;-78
2023/01/23 09:31:03;;;;;;;0.50;0.40;;;3.30;99.90;;;;;;5065160;28;20250;-78
2023/01/23 09:33:31;;;;;;;1.65;1.38;;;3.30;99.90;;;;;;5059939;28;20183;-79
2023/01/23 09:35:58;;;;;;;2.35;1.88;;;3.40;99.90;;;;;;5063639;28;20199;-78
2023/01/23 09:38:25;;;;;;;1.25;1.17;;;3.40;99.90;;;;;;5063742;28;20301;-77
2023/01/23 09:40:55;;;;;;;5.25;3.42;;;3.50;99.90;;;;;;5061843;28;20305;-78
2023/01/23 09:43:26;;;;;;;3.08;2.33;;;3.60;99.90;;;;;;5062817;28;20199;-77
2023/01/23 09:46:00;;;;;;;0.50;0.40;;;3.60;99.90;;;;;;5061314;28;20179;-77
2023/01/23 09:48:33;;;;;;;0.70;0.70;;;3.70;99.90;;;;;;5061865;28;20243;-78
2023/01/23 09:51:05;;;;;;;3.22;2.88;;;3.70;99.90;;;;;;5062379;28;20290;-78
2023/01/23 09:53:37;;;;;;;0.70;0.50;;;3.80;99.90;;;;;;5062375;28;20203;-77
2023/01/23 09:56:13;;;;;;;2.35;2.25;;;3.80;99.90;;;;;;5072803;22;20231;-79
2023/01/23 09:58:46;;;;;;;0.50;0.40;;;3.80;99.90;;;;;;5035146;28;20226;-83
2023/01/23 10:01:13;;;;;;;0.50;0.40;;;3.80;99.90;;;;;;5030912;28;20301;-80
2023/01/23 10:03:42;;;;;;;1.27;1.20;;;3.80;99.90;;;;;;5038840;28;20637;-83
2023/01/23 10:06:19;;;;;;;6.53;1.77;;;3.80;99.90;;;;;;5041156;28;20310;-84
2023/01/23 10:09:01;;;;;;;0.50;0.40;;;3.90;99.90;;;;;;5038757;28;20176;-79
2023/01/23 10:11:41;;;;;;;0.50;0.50;;;4.00;99.90;;;;;;5039812;28;20199;-84
2023/01/23 10:14:24;;;;;;;0.82;0.82;;;3.90;99.90;;;;;;5039861;28;20202;-83
2023/01/23 10:17:02;;;;;;;0.50;0.40;;;4.00;99.90;;;;;;5038535;28;20249;-84
2023/01/23 10:19:52;;;;;;;0.60;0.60;;;3.90;99.90;;;;;;5038186;28;20780;-82
2023/01/23 10:22:37;;;;;;;2.25;2.15;;;4.00;99.90;;;;;;5039169;28;20246;-83
2023/01/23 10:25:14;;;;;;;0.70;0.70;;;4.00;99.90;;;;;;5036060;28;20207;-82
2023/01/23 10:27:43;;;;;;;0.50;0.50;;;4.00;99.90;;;;;;5037444;28;20301;-81
2023/01/23 10:30:22;;;;;;;3.10;1.98;;;4.10;99.90;;;;;;5037545;28;20263;-81
2023/01/23 10:32:52;;;;;;;0.98;0.98;;;4.20;99.90;;;;;;5038590;28;20185;-84
2023/01/23 10:35:25;;;;;;;0.50;0.40;;;4.20;99.90;;;;;;5038589;28;20196;-82
2023/01/23 10:37:56;;;;;;;0.50;0.50;;;4.30;99.90;;;;;;5038444;28;20223;-81
2023/01/23 10:43:10;;;;;;;0.50;0.40;;;4.50;99.90;;;;;;5036956;28;20195;-83
2023/01/23 10:45:38;;;;;;;0.50;0.40;;;4.50;99.90;;;;;;5038076;28;20248;-81
2023/01/23 10:48:30;;;;;;;0.50;0.40;;;4.50;99.90;;;;;;5038101;28;20211;-81
2023/01/23 10:50:59;;;;;;;0.50;0.40;;;4.50;99.90;;;;;;5037978;28;20254;-82
2023/01/23 10:53:26;;;;;;;0.95;0.95;;;4.50;99.90;;;;;;5037701;28;20199;-81
2023/01/23 10:55:57;;;;;;;0.60;0.60;;;4.50;99.90;;;;;;5038262;28;20214;-82
2023/01/23 10:58:31;;;;;;;4.20;3.90;;;4.40;99.90;;;;;;5038058;28;20225;-81
2023/01/23 11:00:59;;;;;;;5.57;3.45;;;4.40;99.90;;;;;;5038202;28;20183;-83
2023/01/23 11:03:31;;;;;;;0.50;0.50;;;4.40;99.90;;;;;;5038468;28;20195;-83
2023/01/23 11:06:04;;;;;;;0.50;0.50;;;4.30;99.90;;;;;;5038738;28;20231;-82
2023/01/23 11:08:34;;;;;;;1.30;1.15;;;4.40;99.90;;;;;;5038712;28;20242;-82
2023/01/23 11:11:23;;;;;;;0.70;0.70;;;4.30;99.90;;;;;;5038082;28;20185;-82
2023/01/23 11:14:03;;;;;;;2.15;1.75;;;4.40;99.90;;;;;;5037700;28;20202;-83
2023/01/23 11:16:30;;;;;;;1.50;1.05;;;4.40;99.90;;;;;;5038353;28;20225;-83
2023/01/23 11:19:05;;;;;;;0.50;0.40;;;4.40;99.90;;;;;;5037992;28;20219;-83
2023/01/23 11:21:36;;;;;;;0.70;0.70;;;4.50;99.90;;;;;;5038031;28;20194;-83
2023/01/23 11:24:17;;;;;;;2.88;2.67;;;4.40;99.90;;;;;;5037717;28;20199;-81
2023/01/23 11:26:44;;;;;;;0.63;0.63;;;4.40;99.90;;;;;;5037467;28;20215;-78
2023/01/23 11:29:22;;;;;;;2.28;1.38;;;4.40;99.90;;;;;;5037974;28;20195;-81
2023/01/23 11:31:53;;;;;;;0.52;0.50;;;4.50;99.90;;;;;;5037229;28;20199;-83
2023/01/23 11:34:24;;;;;;;0.88;0.88;;;4.50;99.90;;;;;;5037583;28;20211;-83
2023/01/23 11:36:59;;;;;;;1.23;1.13;;;4.50;99.90;;;;;;5036499;28;20269;-82
2023/01/23 11:39:41;;;;;;;1.45;0.80;;;4.50;99.90;;;;;;5036923;28;20215;-79
2023/01/23 11:42:10;;;;;;;5.30;2.15;;;4.50;99.90;;;;;;5036697;28;20186;-80
2023/01/23 11:44:39;;;;;;;0.82;0.82;;;4.40;99.90;;;;;;5036796;28;20227;-81
2023/01/23 11:48:00;;;;;;;1.58;1.58;;;4.30;99.90;;;;;;5036082;28;20215;-81
2023/01/23 11:50:37;;;;;;;1.50;1.05;;;4.30;99.90;;;;;;5036446;28;20201;-79
2023/01/23 11:53:19;;;;;;;0.50;0.40;;;4.30;99.90;;;;;;5037961;28;20187;-81
2023/01/23 11:56:15;;;;;;;0.50;0.50;;;4.40;99.90;;;;;;5040082;28;20229;-83
2023/01/23 11:59:03;;;;;;;1.95;1.85;;;4.40;99.90;;;;;;5045685;28;20235;-81
2023/01/23 12:01:36;;;;;;;0.50;0.40;;;4.40;99.90;;;;;;5038651;28;20183;-81
2023/01/23 12:04:44;;;;;;;0.77;0.60;;;4.40;99.90;;;;;;5036200;28;20286;-80
2023/01/23 12:07:20;;;;;;;0.60;0.60;;;4.50;99.90;;;;;;5037006;28;20287;-80
2023/01/23 12:10:07;;;;;;;0.68;0.68;;;4.60;99.90;;;;;;5036785;28;20182;-80
2023/01/23 12:12:50;;;;;;;4.90;1.92;;;4.70;99.90;;;;;;5035478;28;20207;-80
2023/01/23 12:15:31;;;;;;;1.70;1.60;;;4.80;99.90;;;;;;5037353;28;20194;-82
2023/01/23 12:18:11;;;;;;;0.65;0.55;;;4.90;99.90;;;;;;5037369;28;20221;-81
2023/01/23 12:20:48;;;;;;;0.75;0.75;;;5.00;99.90;;;;;;5037103;28;20202;-81
2023/01/23 12:23:40;;;;;;;0.90;0.90;;;5.00;99.90;;;;;;5037137;28;20205;-81
2023/01/23 12:26:13;;;;;;;0.50;0.40;;;5.10;99.90;;;;;;5036751;28;20310;-82
2023/01/23 12:29:04;;;;;;;0.50;0.50;;;5.00;99.90;;;;;;5036976;28;20183;-82
2023/01/23 12:31:50;;;;;;;0.50;0.40;;;5.00;99.90;;;;;;5025840;28;20191;-82
2023/01/23 12:34:33;;;;;;;0.50;0.40;;;5.00;99.90;;;;;;5036092;28;20664;-81
2023/01/23 12:37:15;;;;;;;0.50;0.40;;;4.90;99.90;;;;;;5036419;28;20734;-82
2023/01/23 12:39:56;;;;;;;0.50;0.50;;;4.80;99.90;;;;;;5037162;28;20290;-82
2023/01/23 12:42:29;;;;;;;2.55;1.40;;;4.70;99.90;;;;;;5037180;28;20223;-81
2023/01/23 12:45:02;;;;;;;0.60;0.60;;;4.70;99.90;;;;;;5036313;28;20226;-79
2023/01/23 12:47:35;;;;;;;0.93;0.93;;;4.60;99.90;;;;;;5036477;28;20260;-82
2023/01/23 12:50:04;;;;;;;2.45;2.35;;;4.50;99.90;;;;;;5040494;28;20278;-81
2023/01/23 12:52:39;;;;;;;0.50;0.40;;;4.70;99.90;;;;;;5040244;28;20203;-82
2023/01/23 12:55:17;;;;;;;0.80;0.80;;;4.70;99.90;;;;;;5039983;28;20179;-81
2023/01/23 12:57:50;;;;;;;0.50;0.50;;;4.70;99.90;;;;;;5039762;28;20313;-81
2023/01/23 13:00:29;;;;;;;1.10;1.00;;;4.60;99.90;;;;;;5040115;28;20390;-81
2023/01/23 13:03:08;;;;;;;0.50;0.50;;;4.60;99.90;;;;;;5040760;28;20214;-81
2023/01/23 13:05:43;;;;;;;1.40;0.95;;;4.50;99.90;;;;;;5040221;28;20183;-82
2023/01/23 13:08:20;;;;;;;3.42;2.83;;;4.40;99.90;;;;;;5040343;28;20194;-80
2023/01/23 13:13:47;;;;;;;0.50;0.40;;;4.20;99.90;;;;;;5039978;28;20244;-79
2023/01/23 13:16:16;;;;;;;0.50;0.40;;;4.20;99.90;;;;;;5039094;28;20212;-81
2023/01/23 13:27:46;;;;;;;0.60;0.60;;;4.30;99.90;;;;;;5036424;28;20261;-80
2023/01/23 13:30:42;;;;;;;0.63;0.63;;;4.30;99.90;;;;;;5039842;28;20180;-81
2023/01/23 13:33:52;;;;;;;0.50;0.40;;;4.30;99.90;;;;;;5039737;28;20221;-80
2023/01/23 13:36:33;;;;;;;0.50;0.50;;;4.30;99.90;;;;;;5039452;28;20225;-82